sensor_id;sensor_type;location;lat;lon;timestamp;P1;durP1;ratioP1;P2;durP2;ratioP2
64688;SDS011;62504;46.070;14.492;2024-03-25T00:01:30;7.17;;;3.23;;
64688;SDS011;62504;46.070;14.492;2024-03-25T00:03:56;8.60;;;3.57;;
64688;SDS011;62504;46.070;14.492;2024-03-25T00:06:21;8.23;;;3.37;;
64688;SDS011;62504;46.070;14.492;2024-03-25T00:08:47;9.90;;;3.40;;
64688;SDS011;62504;46.070;14.492;2024-03-25T00:11:13;11.10;;;4.37;;
64688;SDS011;62504;46.070;14.492;2024-03-25T00:13:38;11.03;;;4.20;;
64688;SDS011;62504;46.070;14.492;2024-03-25T00:16:04;11.37;;;4.60;;
64688;SDS011;62504;46.070;14.492;2024-03-25T00:18:31;12.50;;;4.20;;
64688;SDS011;62504;46.070;14.492;2024-03-25T00:20:57;8.67;;;3.90;;
64688;SDS011;62504;46.070;14.492;2024-03-25T00:23:23;8.23;;;4.03;;
64688;SDS011;62504;46.070;14.492;2024-03-25T00:25:49;10.33;;;4.53;;
64688;SDS011;62504;46.070;14.492;2024-03-25T00:28:15;10.37;;;4.23;;
64688;SDS011;62504;46.070;14.492;2024-03-25T00:30:40;11.03;;;4.37;;
64688;SDS011;62504;46.070;14.492;2024-03-25T00:33:06;10.20;;;3.80;;
64688;SDS011;62504;46.070;14.492;2024-03-25T00:35:32;9.10;;;3.80;;
64688;SDS011;62504;46.070;14.492;2024-03-25T00:37:58;7.90;;;3.37;;
64688;SDS011;62504;46.070;14.492;2024-03-25T00:40:24;6.97;;;3.30;;
64688;SDS011;62504;46.070;14.492;2024-03-25T00:42:50;6.13;;;2.90;;
64688;SDS011;62504;46.070;14.492;2024-03-25T00:45:15;5.93;;;2.90;;
64688;SDS011;62504;46.070;14.492;2024-03-25T00:47:41;6.67;;;2.97;;
64688;SDS011;62504;46.070;14.492;2024-03-25T00:50:07;6.47;;;3.13;;
64688;SDS011;62504;46.070;14.492;2024-03-25T00:52:34;6.00;;;2.83;;
64688;SDS011;62504;46.070;14.492;2024-03-25T00:55:00;5.50;;;2.77;;
64688;SDS011;62504;46.070;14.492;2024-03-25T00:57:26;6.33;;;3.00;;
64688;SDS011;62504;46.070;14.492;2024-03-25T00:59:52;6.83;;;3.47;;
64688;SDS011;62504;46.070;14.492;2024-03-25T01:02:17;6.50;;;2.97;;
64688;SDS011;62504;46.070;14.492;2024-03-25T01:04:43;6.10;;;3.30;;
64688;SDS011;62504;46.070;14.492;2024-03-25T01:07:09;5.70;;;3.07;;
64688;SDS011;62504;46.070;14.492;2024-03-25T01:09:34;9.40;;;3.70;;
64688;SDS011;62504;46.070;14.492;2024-03-25T01:12:00;7.43;;;3.57;;
64688;SDS011;62504;46.070;14.492;2024-03-25T01:14:26;8.43;;;3.70;;
64688;SDS011;62504;46.070;14.492;2024-03-25T01:16:52;7.30;;;3.93;;
64688;SDS011;62504;46.070;14.492;2024-03-25T01:19:17;8.50;;;3.67;;
64688;SDS011;62504;46.070;14.492;2024-03-25T01:21:43;7.83;;;3.50;;
64688;SDS011;62504;46.070;14.492;2024-03-25T01:24:09;9.10;;;3.87;;
64688;SDS011;62504;46.070;14.492;2024-03-25T01:26:35;8.27;;;3.70;;
64688;SDS011;62504;46.070;14.492;2024-03-25T01:29:01;5.77;;;3.57;;
64688;SDS011;62504;46.070;14.492;2024-03-25T01:31:27;7.37;;;3.20;;
64688;SDS011;62504;46.070;14.492;2024-03-25T01:33:53;6.10;;;3.37;;
64688;SDS011;62504;46.070;14.492;2024-03-25T01:36:19;9.57;;;3.40;;
64688;SDS011;62504;46.070;14.492;2024-03-25T01:38:45;8.07;;;3.47;;
64688;SDS011;62504;46.070;14.492;2024-03-25T01:41:11;7.70;;;3.40;;
64688;SDS011;62504;46.070;14.492;2024-03-25T01:43:37;6.27;;;3.30;;
64688;SDS011;62504;46.070;14.492;2024-03-25T01:46:04;6.60;;;3.20;;
64688;SDS011;62504;46.070;14.492;2024-03-25T01:48:30;7.03;;;3.53;;
64688;SDS011;62504;46.070;14.492;2024-03-25T01:50:56;7.43;;;3.20;;
64688;SDS011;62504;46.070;14.492;2024-03-25T01:53:23;6.53;;;3.10;;
64688;SDS011;62504;46.070;14.492;2024-03-25T01:55:50;8.00;;;3.30;;
64688;SDS011;62504;46.070;14.492;2024-03-25T01:58:20;6.87;;;3.20;;
64688;SDS011;62504;46.070;14.492;2024-03-25T02:00:46;7.37;;;3.43;;
64688;SDS011;62504;46.070;14.492;2024-03-25T02:03:12;6.43;;;3.37;;
64688;SDS011;62504;46.070;14.492;2024-03-25T02:05:38;7.57;;;3.10;;
64688;SDS011;62504;46.070;14.492;2024-03-25T02:08:04;7.40;;;3.40;;
64688;SDS011;62504;46.070;14.492;2024-03-25T02:10:31;7.13;;;3.27;;
64688;SDS011;62504;46.070;14.492;2024-03-25T02:12:57;6.03;;;2.93;;
64688;SDS011;62504;46.070;14.492;2024-03-25T02:15:23;4.40;;;2.73;;
64688;SDS011;62504;46.070;14.492;2024-03-25T02:17:51;6.40;;;2.93;;
64688;SDS011;62504;46.070;14.492;2024-03-25T02:20:17;4.80;;;2.53;;
64688;SDS011;62504;46.070;14.492;2024-03-25T02:22:43;4.83;;;2.57;;
64688;SDS011;62504;46.070;14.492;2024-03-25T02:25:09;5.47;;;2.70;;
64688;SDS011;62504;46.070;14.492;2024-03-25T02:27:39;5.23;;;2.60;;
64688;SDS011;62504;46.070;14.492;2024-03-25T02:30:05;6.00;;;2.87;;
64688;SDS011;62504;46.070;14.492;2024-03-25T02:32:33;5.87;;;3.00;;
64688;SDS011;62504;46.070;14.492;2024-03-25T02:34:59;4.90;;;2.80;;
64688;SDS011;62504;46.070;14.492;2024-03-25T02:37:28;7.50;;;3.07;;
64688;SDS011;62504;46.070;14.492;2024-03-25T02:39:55;5.30;;;2.77;;
64688;SDS011;62504;46.070;14.492;2024-03-25T02:42:23;10.50;;;3.20;;
64688;SDS011;62504;46.070;14.492;2024-03-25T02:44:53;5.70;;;2.67;;
64688;SDS011;62504;46.070;14.492;2024-03-25T02:47:20;7.20;;;3.50;;
64688;SDS011;62504;46.070;14.492;2024-03-25T02:49:46;8.27;;;3.10;;
64688;SDS011;62504;46.070;14.492;2024-03-25T02:52:11;6.70;;;3.27;;
64688;SDS011;62504;46.070;14.492;2024-03-25T02:54:37;6.47;;;3.23;;
64688;SDS011;62504;46.070;14.492;2024-03-25T02:57:03;6.03;;;3.03;;
64688;SDS011;62504;46.070;14.492;2024-03-25T02:59:29;7.13;;;3.23;;
64688;SDS011;62504;46.070;14.492;2024-03-25T03:01:54;9.00;;;3.17;;
64688;SDS011;62504;46.070;14.492;2024-03-25T03:04:20;6.90;;;3.37;;
64688;SDS011;62504;46.070;14.492;2024-03-25T03:06:45;8.27;;;3.17;;
64688;SDS011;62504;46.070;14.492;2024-03-25T03:09:11;6.73;;;2.97;;
64688;SDS011;62504;46.070;14.492;2024-03-25T03:11:37;6.70;;;3.10;;
64688;SDS011;62504;46.070;14.492;2024-03-25T03:14:02;5.03;;;3.33;;
64688;SDS011;62504;46.070;14.492;2024-03-25T03:16:29;6.60;;;2.97;;
64688;SDS011;62504;46.070;14.492;2024-03-25T03:18:54;6.90;;;3.00;;
64688;SDS011;62504;46.070;14.492;2024-03-25T03:21:20;5.73;;;2.90;;
64688;SDS011;62504;46.070;14.492;2024-03-25T03:23:46;5.63;;;2.90;;
64688;SDS011;62504;46.070;14.492;2024-03-25T03:26:11;5.33;;;3.13;;
64688;SDS011;62504;46.070;14.492;2024-03-25T03:28:38;7.17;;;2.93;;
64688;SDS011;62504;46.070;14.492;2024-03-25T03:31:05;6.87;;;3.00;;
64688;SDS011;62504;46.070;14.492;2024-03-25T03:33:31;5.23;;;2.87;;
64688;SDS011;62504;46.070;14.492;2024-03-25T03:35:56;6.60;;;2.70;;
64688;SDS011;62504;46.070;14.492;2024-03-25T03:38:22;4.73;;;2.73;;
64688;SDS011;62504;46.070;14.492;2024-03-25T03:40:57;5.83;;;3.00;;
64688;SDS011;62504;46.070;14.492;2024-03-25T03:43:24;5.97;;;2.80;;
64688;SDS011;62504;46.070;14.492;2024-03-25T03:45:49;4.30;;;2.40;;
64688;SDS011;62504;46.070;14.492;2024-03-25T03:48:15;5.50;;;2.60;;
64688;SDS011;62504;46.070;14.492;2024-03-25T03:50:41;5.07;;;2.70;;
64688;SDS011;62504;46.070;14.492;2024-03-25T03:53:07;4.83;;;2.87;;
64688;SDS011;62504;46.070;14.492;2024-03-25T03:55:33;7.23;;;3.20;;
64688;SDS011;62504;46.070;14.492;2024-03-25T03:57:58;5.93;;;2.90;;
64688;SDS011;62504;46.070;14.492;2024-03-25T04:00:24;7.33;;;3.47;;
64688;SDS011;62504;46.070;14.492;2024-03-25T04:02:50;7.47;;;3.03;;
64688;SDS011;62504;46.070;14.492;2024-03-25T04:05:15;5.87;;;3.17;;
64688;SDS011;62504;46.070;14.492;2024-03-25T04:07:41;5.27;;;2.90;;
64688;SDS011;62504;46.070;14.492;2024-03-25T04:10:08;6.57;;;3.10;;
64688;SDS011;62504;46.070;14.492;2024-03-25T04:12:34;4.50;;;2.67;;
64688;SDS011;62504;46.070;14.492;2024-03-25T04:15:01;5.10;;;2.73;;
64688;SDS011;62504;46.070;14.492;2024-03-25T04:17:28;5.03;;;2.80;;
64688;SDS011;62504;46.070;14.492;2024-03-25T04:19:54;5.53;;;2.63;;
64688;SDS011;62504;46.070;14.492;2024-03-25T04:22:19;4.50;;;2.47;;
64688;SDS011;62504;46.070;14.492;2024-03-25T04:24:45;7.03;;;3.10;;
64688;SDS011;62504;46.070;14.492;2024-03-25T04:27:11;6.07;;;2.90;;
64688;SDS011;62504;46.070;14.492;2024-03-25T04:29:37;5.10;;;2.70;;
64688;SDS011;62504;46.070;14.492;2024-03-25T04:32:02;6.83;;;2.87;;
64688;SDS011;62504;46.070;14.492;2024-03-25T04:34:29;4.50;;;2.57;;
64688;SDS011;62504;46.070;14.492;2024-03-25T04:36:54;5.93;;;3.40;;
64688;SDS011;62504;46.070;14.492;2024-03-25T04:39:23;5.23;;;2.70;;
64688;SDS011;62504;46.070;14.492;2024-03-25T04:41:48;6.40;;;3.37;;
64688;SDS011;62504;46.070;14.492;2024-03-25T04:44:14;6.27;;;3.30;;
64688;SDS011;62504;46.070;14.492;2024-03-25T04:46:40;5.93;;;3.10;;
64688;SDS011;62504;46.070;14.492;2024-03-25T04:49:05;6.40;;;2.90;;
64688;SDS011;62504;46.070;14.492;2024-03-25T04:51:31;5.80;;;3.10;;
64688;SDS011;62504;46.070;14.492;2024-03-25T04:53:57;7.53;;;3.20;;
64688;SDS011;62504;46.070;14.492;2024-03-25T04:56:23;6.10;;;3.10;;
64688;SDS011;62504;46.070;14.492;2024-03-25T04:58:49;7.13;;;3.37;;
64688;SDS011;62504;46.070;14.492;2024-03-25T05:01:14;6.77;;;3.33;;
64688;SDS011;62504;46.070;14.492;2024-03-25T05:03:40;6.60;;;2.90;;
64688;SDS011;62504;46.070;14.492;2024-03-25T05:06:05;5.60;;;3.07;;
64688;SDS011;62504;46.070;14.492;2024-03-25T05:08:34;5.37;;;3.07;;
64688;SDS011;62504;46.070;14.492;2024-03-25T05:11:00;5.93;;;2.80;;
64688;SDS011;62504;46.070;14.492;2024-03-25T05:13:25;5.63;;;3.00;;
64688;SDS011;62504;46.070;14.492;2024-03-25T05:15:51;8.53;;;3.10;;
64688;SDS011;62504;46.070;14.492;2024-03-25T05:18:17;8.30;;;3.10;;
64688;SDS011;62504;46.070;14.492;2024-03-25T05:20:43;7.70;;;3.13;;
64688;SDS011;62504;46.070;14.492;2024-03-25T05:23:09;6.90;;;3.53;;
64688;SDS011;62504;46.070;14.492;2024-03-25T05:25:36;6.97;;;3.23;;
64688;SDS011;62504;46.070;14.492;2024-03-25T05:28:01;7.00;;;3.53;;
64688;SDS011;62504;46.070;14.492;2024-03-25T05:30:27;9.97;;;3.57;;
64688;SDS011;62504;46.070;14.492;2024-03-25T05:32:53;6.57;;;3.10;;
64688;SDS011;62504;46.070;14.492;2024-03-25T05:35:18;8.43;;;3.70;;
64688;SDS011;62504;46.070;14.492;2024-03-25T05:37:44;10.30;;;3.80;;
64688;SDS011;62504;46.070;14.492;2024-03-25T05:40:10;8.47;;;4.07;;
64688;SDS011;62504;46.070;14.492;2024-03-25T05:42:36;8.40;;;3.93;;
64688;SDS011;62504;46.070;14.492;2024-03-25T05:45:05;8.17;;;3.60;;
64688;SDS011;62504;46.070;14.492;2024-03-25T05:47:31;10.60;;;3.40;;
64688;SDS011;62504;46.070;14.492;2024-03-25T05:49:57;7.67;;;2.90;;
64688;SDS011;62504;46.070;14.492;2024-03-25T05:52:23;5.73;;;2.77;;
64688;SDS011;62504;46.070;14.492;2024-03-25T05:54:48;7.60;;;3.30;;
64688;SDS011;62504;46.070;14.492;2024-03-25T05:57:14;9.37;;;3.47;;
64688;SDS011;62504;46.070;14.492;2024-03-25T05:59:39;6.43;;;3.20;;
64688;SDS011;62504;46.070;14.492;2024-03-25T06:02:05;7.87;;;3.30;;
64688;SDS011;62504;46.070;14.492;2024-03-25T06:04:31;6.80;;;3.20;;
64688;SDS011;62504;46.070;14.492;2024-03-25T06:06:56;5.87;;;3.43;;
64688;SDS011;62504;46.070;14.492;2024-03-25T06:09:22;7.93;;;3.60;;
64688;SDS011;62504;46.070;14.492;2024-03-25T06:11:47;11.93;;;3.60;;
64688;SDS011;62504;46.070;14.492;2024-03-25T06:14:13;8.80;;;3.97;;
64688;SDS011;62504;46.070;14.492;2024-03-25T06:16:39;6.00;;;3.60;;
64688;SDS011;62504;46.070;14.492;2024-03-25T06:19:04;7.63;;;3.63;;
64688;SDS011;62504;46.070;14.492;2024-03-25T06:21:30;9.40;;;4.00;;
64688;SDS011;62504;46.070;14.492;2024-03-25T06:23:55;7.03;;;3.73;;
64688;SDS011;62504;46.070;14.492;2024-03-25T06:26:21;6.00;;;3.70;;
64688;SDS011;62504;46.070;14.492;2024-03-25T06:28:47;48.20;;;18.13;;
64688;SDS011;62504;46.070;14.492;2024-03-25T06:31:12;24.13;;;10.80;;
64688;SDS011;62504;46.070;14.492;2024-03-25T06:33:56;19.90;;;9.33;;
64688;SDS011;62504;46.070;14.492;2024-03-25T06:36:45;62.27;;;26.10;;
64688;SDS011;62504;46.070;14.492;2024-03-25T06:39:12;9.73;;;5.03;;
64688;SDS011;62504;46.070;14.492;2024-03-25T06:41:37;11.13;;;4.67;;
64688;SDS011;62504;46.070;14.492;2024-03-25T06:44:03;8.23;;;4.67;;
64688;SDS011;62504;46.070;14.492;2024-03-25T06:46:30;8.63;;;4.97;;
64688;SDS011;62504;46.070;14.492;2024-03-25T06:48:55;10.50;;;4.53;;
64688;SDS011;62504;46.070;14.492;2024-03-25T06:51:21;11.43;;;4.77;;
64688;SDS011;62504;46.070;14.492;2024-03-25T06:53:46;12.20;;;6.03;;
64688;SDS011;62504;46.070;14.492;2024-03-25T06:56:12;9.03;;;5.27;;
64688;SDS011;62504;46.070;14.492;2024-03-25T06:58:38;10.10;;;5.40;;
64688;SDS011;62504;46.070;14.492;2024-03-25T07:01:05;14.40;;;5.43;;
64688;SDS011;62504;46.070;14.492;2024-03-25T07:03:32;11.00;;;6.03;;
64688;SDS011;62504;46.070;14.492;2024-03-25T07:05:59;10.03;;;5.20;;
64688;SDS011;62504;46.070;14.492;2024-03-25T07:08:25;10.73;;;5.40;;
64688;SDS011;62504;46.070;14.492;2024-03-25T07:10:52;7.90;;;4.73;;
64688;SDS011;62504;46.070;14.492;2024-03-25T07:13:18;10.40;;;5.43;;
64688;SDS011;62504;46.070;14.492;2024-03-25T07:15:43;9.43;;;4.87;;
64688;SDS011;62504;46.070;14.492;2024-03-25T07:18:09;9.40;;;5.47;;
64688;SDS011;62504;46.070;14.492;2024-03-25T07:20:39;10.87;;;5.30;;
64688;SDS011;62504;46.070;14.492;2024-03-25T07:23:05;11.87;;;5.40;;
64688;SDS011;62504;46.070;14.492;2024-03-25T07:25:31;9.90;;;5.33;;
64688;SDS011;62504;46.070;14.492;2024-03-25T07:27:56;13.93;;;5.83;;
64688;SDS011;62504;46.070;14.492;2024-03-25T07:30:22;10.83;;;5.93;;
64688;SDS011;62504;46.070;14.492;2024-03-25T07:32:52;11.63;;;6.37;;
64688;SDS011;62504;46.070;14.492;2024-03-25T07:35:18;11.93;;;6.90;;
64688;SDS011;62504;46.070;14.492;2024-03-25T07:37:44;14.33;;;6.73;;
64688;SDS011;62504;46.070;14.492;2024-03-25T07:40:09;10.90;;;6.17;;
64688;SDS011;62504;46.070;14.492;2024-03-25T07:42:36;15.23;;;7.10;;
64688;SDS011;62504;46.070;14.492;2024-03-25T07:45:02;11.90;;;6.47;;
64688;SDS011;62504;46.070;14.492;2024-03-25T07:47:30;16.40;;;6.67;;
64688;SDS011;62504;46.070;14.492;2024-03-25T07:49:55;16.03;;;6.83;;
64688;SDS011;62504;46.070;14.492;2024-03-25T07:52:21;13.40;;;7.07;;
64688;SDS011;62504;46.070;14.492;2024-03-25T07:54:46;14.50;;;8.30;;
64688;SDS011;62504;46.070;14.492;2024-03-25T07:57:12;16.03;;;8.83;;
64688;SDS011;62504;46.070;14.492;2024-03-25T07:59:38;16.77;;;8.70;;
64688;SDS011;62504;46.070;14.492;2024-03-25T08:02:04;20.83;;;9.30;;
64688;SDS011;62504;46.070;14.492;2024-03-25T08:04:30;17.50;;;8.70;;
64688;SDS011;62504;46.070;14.492;2024-03-25T08:06:56;16.27;;;9.03;;
64688;SDS011;62504;46.070;14.492;2024-03-25T08:09:21;17.47;;;9.60;;
64688;SDS011;62504;46.070;14.492;2024-03-25T08:11:47;18.87;;;9.20;;
64688;SDS011;62504;46.070;14.492;2024-03-25T08:14:13;16.97;;;9.50;;
64688;SDS011;62504;46.070;14.492;2024-03-25T08:16:39;17.27;;;9.20;;
64688;SDS011;62504;46.070;14.492;2024-03-25T08:19:04;19.03;;;9.87;;
64688;SDS011;62504;46.070;14.492;2024-03-25T08:21:31;21.37;;;10.57;;
64688;SDS011;62504;46.070;14.492;2024-03-25T08:23:56;20.03;;;11.00;;
64688;SDS011;62504;46.070;14.492;2024-03-25T08:26:22;23.23;;;11.63;;
64688;SDS011;62504;46.070;14.492;2024-03-25T08:28:47;21.23;;;12.23;;
64688;SDS011;62504;46.070;14.492;2024-03-25T08:31:16;26.47;;;13.07;;
64688;SDS011;62504;46.070;14.492;2024-03-25T08:33:42;23.90;;;13.47;;
64688;SDS011;62504;46.070;14.492;2024-03-25T08:36:07;23.07;;;12.40;;
64688;SDS011;62504;46.070;14.492;2024-03-25T08:38:33;22.13;;;11.57;;
64688;SDS011;62504;46.070;14.492;2024-03-25T08:40:59;21.30;;;11.67;;
64688;SDS011;62504;46.070;14.492;2024-03-25T08:43:25;21.53;;;10.90;;
64688;SDS011;62504;46.070;14.492;2024-03-25T08:45:50;19.67;;;10.80;;
64688;SDS011;62504;46.070;14.492;2024-03-25T08:48:18;19.50;;;10.87;;
64688;SDS011;62504;46.070;14.492;2024-03-25T08:50:44;18.90;;;10.00;;
64688;SDS011;62504;46.070;14.492;2024-03-25T08:53:09;13.60;;;8.20;;
64688;SDS011;62504;46.070;14.492;2024-03-25T08:55:35;13.47;;;7.93;;
64688;SDS011;62504;46.070;14.492;2024-03-25T08:58:01;12.50;;;7.10;;
64688;SDS011;62504;46.070;14.492;2024-03-25T09:00:27;11.20;;;6.67;;
64688;SDS011;62504;46.070;14.492;2024-03-25T09:02:53;13.13;;;6.73;;
64688;SDS011;62504;46.070;14.492;2024-03-25T09:05:19;13.93;;;7.17;;
64688;SDS011;62504;46.070;14.492;2024-03-25T09:07:45;13.20;;;6.40;;
64688;SDS011;62504;46.070;14.492;2024-03-25T09:10:15;15.37;;;6.67;;
64688;SDS011;62504;46.070;14.492;2024-03-25T09:12:59;9.50;;;6.27;;
64688;SDS011;62504;46.070;14.492;2024-03-25T09:15:25;18.60;;;6.60;;
64688;SDS011;62504;46.070;14.492;2024-03-25T09:17:50;10.53;;;5.80;;
64688;SDS011;62504;46.070;14.492;2024-03-25T09:20:16;10.97;;;5.90;;
64688;SDS011;62504;46.070;14.492;2024-03-25T09:22:45;9.30;;;5.80;;
64688;SDS011;62504;46.070;14.492;2024-03-25T09:25:12;9.20;;;5.37;;
64688;SDS011;62504;46.070;14.492;2024-03-25T09:27:38;11.03;;;5.90;;
64688;SDS011;62504;46.070;14.492;2024-03-25T09:30:05;9.63;;;5.83;;
64688;SDS011;62504;46.070;14.492;2024-03-25T09:32:31;16.33;;;8.60;;
64688;SDS011;62504;46.070;14.492;2024-03-25T09:34:57;11.10;;;6.13;;
64688;SDS011;62504;46.070;14.492;2024-03-25T09:37:23;12.20;;;7.40;;
64688;SDS011;62504;46.070;14.492;2024-03-25T09:39:48;11.53;;;5.33;;
64688;SDS011;62504;46.070;14.492;2024-03-25T09:42:15;11.03;;;5.20;;
64688;SDS011;62504;46.070;14.492;2024-03-25T09:44:43;7.00;;;4.70;;
64688;SDS011;62504;46.070;14.492;2024-03-25T09:47:09;6.07;;;3.77;;
64688;SDS011;62504;46.070;14.492;2024-03-25T09:49:37;6.07;;;3.97;;
64688;SDS011;62504;46.070;14.492;2024-03-25T09:52:05;7.10;;;3.20;;
64688;SDS011;62504;46.070;14.492;2024-03-25T09:54:32;4.93;;;3.30;;
64688;SDS011;62504;46.070;14.492;2024-03-25T09:56:58;7.43;;;3.63;;
64688;SDS011;62504;46.070;14.492;2024-03-25T09:59:25;5.97;;;3.80;;
64688;SDS011;62504;46.070;14.492;2024-03-25T10:01:51;6.43;;;3.80;;
64688;SDS011;62504;46.070;14.492;2024-03-25T10:04:18;4.97;;;3.27;;
64688;SDS011;62504;46.070;14.492;2024-03-25T10:06:44;6.77;;;3.10;;
64688;SDS011;62504;46.070;14.492;2024-03-25T10:09:10;3.70;;;2.83;;
64688;SDS011;62504;46.070;14.492;2024-03-25T10:11:36;4.73;;;2.80;;
64688;SDS011;62504;46.070;14.492;2024-03-25T10:14:01;6.83;;;3.00;;
64688;SDS011;62504;46.070;14.492;2024-03-25T10:16:27;6.03;;;2.97;;
64688;SDS011;62504;46.070;14.492;2024-03-25T10:18:53;4.20;;;2.60;;
64688;SDS011;62504;46.070;14.492;2024-03-25T10:21:20;7.33;;;3.00;;
64688;SDS011;62504;46.070;14.492;2024-03-25T10:23:46;5.00;;;3.03;;
64688;SDS011;62504;46.070;14.492;2024-03-25T10:26:25;5.23;;;3.10;;
64688;SDS011;62504;46.070;14.492;2024-03-25T10:29:04;5.43;;;2.83;;
64688;SDS011;62504;46.070;14.492;2024-03-25T10:31:33;6.33;;;2.40;;
64688;SDS011;62504;46.070;14.492;2024-03-25T10:33:59;5.07;;;2.67;;
64688;SDS011;62504;46.070;14.492;2024-03-25T10:36:25;7.73;;;2.57;;
64688;SDS011;62504;46.070;14.492;2024-03-25T10:38:56;7.07;;;2.20;;
64688;SDS011;62504;46.070;14.492;2024-03-25T10:41:24;4.30;;;2.13;;
64688;SDS011;62504;46.070;14.492;2024-03-25T10:43:51;5.53;;;2.10;;
64688;SDS011;62504;46.070;14.492;2024-03-25T10:46:19;4.63;;;2.17;;
64688;SDS011;62504;46.070;14.492;2024-03-25T10:51:54;4.73;;;1.70;;
64688;SDS011;62504;46.070;14.492;2024-03-25T10:54:22;188.07;;;76.03;;
64688;SDS011;62504;46.070;14.492;2024-03-25T10:56:49;331.13;;;130.90;;
64688;SDS011;62504;46.070;14.492;2024-03-25T10:59:16;77.10;;;38.27;;
64688;SDS011;62504;46.070;14.492;2024-03-25T11:01:45;23.07;;;12.47;;
64688;SDS011;62504;46.070;14.492;2024-03-25T11:04:11;2.27;;;1.77;;
64688;SDS011;62504;46.070;14.492;2024-03-25T11:06:37;3.77;;;1.47;;
64688;SDS011;62504;46.070;14.492;2024-03-25T11:09:02;2.23;;;1.20;;
64688;SDS011;62504;46.070;14.492;2024-03-25T11:11:34;2.13;;;1.33;;
64688;SDS011;62504;46.070;14.492;2024-03-25T11:14:03;1.73;;;1.07;;
64688;SDS011;62504;46.070;14.492;2024-03-25T11:16:32;1.33;;;0.83;;
64688;SDS011;62504;46.070;14.492;2024-03-25T11:19:03;1.40;;;0.80;;
64688;SDS011;62504;46.070;14.492;2024-03-25T11:21:31;1.83;;;1.13;;
64688;SDS011;62504;46.070;14.492;2024-03-25T11:24:05;1.33;;;0.80;;
64688;SDS011;62504;46.070;14.492;2024-03-25T11:26:31;1.60;;;1.10;;
64688;SDS011;62504;46.070;14.492;2024-03-25T11:29:00;2.33;;;1.10;;
64688;SDS011;62504;46.070;14.492;2024-03-25T11:31:26;2.17;;;1.20;;
64688;SDS011;62504;46.070;14.492;2024-03-25T11:33:52;1.80;;;1.00;;
64688;SDS011;62504;46.070;14.492;2024-03-25T11:36:18;2.70;;;1.10;;
64688;SDS011;62504;46.070;14.492;2024-03-25T11:38:57;2.97;;;1.40;;
64688;SDS011;62504;46.070;14.492;2024-03-25T11:41:32;2.07;;;1.60;;
64688;SDS011;62504;46.070;14.492;2024-03-25T11:43:58;2.57;;;1.20;;
64688;SDS011;62504;46.070;14.492;2024-03-25T11:46:25;2.87;;;1.20;;
64688;SDS011;62504;46.070;14.492;2024-03-25T11:48:51;3.83;;;1.20;;
64688;SDS011;62504;46.070;14.492;2024-03-25T11:51:17;2.70;;;1.20;;
64688;SDS011;62504;46.070;14.492;2024-03-25T11:53:44;2.30;;;1.50;;
64688;SDS011;62504;46.070;14.492;2024-03-25T11:56:10;2.60;;;1.20;;
64688;SDS011;62504;46.070;14.492;2024-03-25T11:58:39;1.33;;;0.93;;
64688;SDS011;62504;46.070;14.492;2024-03-25T12:01:05;2.03;;;1.13;;
64688;SDS011;62504;46.070;14.492;2024-03-25T12:03:33;1.43;;;1.17;;
64688;SDS011;62504;46.070;14.492;2024-03-25T12:05:59;2.50;;;1.00;;
64688;SDS011;62504;46.070;14.492;2024-03-25T12:08:24;1.53;;;1.00;;
64688;SDS011;62504;46.070;14.492;2024-03-25T12:10:51;1.67;;;0.87;;
64688;SDS011;62504;46.070;14.492;2024-03-25T12:13:36;3.10;;;0.90;;
64688;SDS011;62504;46.070;14.492;2024-03-25T12:16:06;3.93;;;2.07;;
64688;SDS011;62504;46.070;14.492;2024-03-25T12:18:35;3.77;;;1.50;;
64688;SDS011;62504;46.070;14.492;2024-03-25T12:21:04;4.30;;;1.40;;
64688;SDS011;62504;46.070;14.492;2024-03-25T12:23:33;4.20;;;2.70;;
64688;SDS011;62504;46.070;14.492;2024-03-25T12:26:02;1.93;;;0.73;;
64688;SDS011;62504;46.070;14.492;2024-03-25T12:28:31;2.83;;;1.10;;
64688;SDS011;62504;46.070;14.492;2024-03-25T12:30:56;1.73;;;0.70;;
64688;SDS011;62504;46.070;14.492;2024-03-25T12:33:22;2.33;;;0.70;;
64688;SDS011;62504;46.070;14.492;2024-03-25T12:35:49;2.20;;;0.70;;
64688;SDS011;62504;46.070;14.492;2024-03-25T12:38:25;1.30;;;0.60;;
64688;SDS011;62504;46.070;14.492;2024-03-25T12:40:53;4.20;;;0.70;;
64688;SDS011;62504;46.070;14.492;2024-03-25T12:43:43;1.43;;;0.77;;
64688;SDS011;62504;46.070;14.492;2024-03-25T12:46:09;1.37;;;0.77;;
64688;SDS011;62504;46.070;14.492;2024-03-25T12:48:36;0.67;;;0.50;;
64688;SDS011;62504;46.070;14.492;2024-03-25T12:51:02;1.13;;;0.60;;
64688;SDS011;62504;46.070;14.492;2024-03-25T12:53:27;4.17;;;0.80;;
64688;SDS011;62504;46.070;14.492;2024-03-25T12:55:53;0.60;;;0.60;;
64688;SDS011;62504;46.070;14.492;2024-03-25T12:58:19;1.73;;;0.70;;
64688;SDS011;62504;46.070;14.492;2024-03-25T13:00:44;1.27;;;0.70;;
64688;SDS011;62504;46.070;14.492;2024-03-25T13:03:10;0.90;;;0.60;;
64688;SDS011;62504;46.070;14.492;2024-03-25T13:05:37;1.10;;;0.63;;
64688;SDS011;62504;46.070;14.492;2024-03-25T13:08:03;1.13;;;0.70;;
64688;SDS011;62504;46.070;14.492;2024-03-25T13:10:29;2.90;;;0.60;;
64688;SDS011;62504;46.070;14.492;2024-03-25T13:12:55;1.90;;;1.10;;
64688;SDS011;62504;46.070;14.492;2024-03-25T13:15:21;1.00;;;0.80;;
64688;SDS011;62504;46.070;14.492;2024-03-25T13:17:47;0.80;;;0.70;;
64688;SDS011;62504;46.070;14.492;2024-03-25T13:20:13;0.80;;;0.67;;
64688;SDS011;62504;46.070;14.492;2024-03-25T13:22:39;1.00;;;0.80;;
64688;SDS011;62504;46.070;14.492;2024-03-25T13:25:05;2.43;;;0.70;;
64688;SDS011;62504;46.070;14.492;2024-03-25T13:27:31;1.00;;;0.60;;
64688;SDS011;62504;46.070;14.492;2024-03-25T13:29:57;0.97;;;0.70;;
64688;SDS011;62504;46.070;14.492;2024-03-25T13:32:23;1.03;;;0.70;;
64688;SDS011;62504;46.070;14.492;2024-03-25T13:34:49;0.80;;;0.70;;
64688;SDS011;62504;46.070;14.492;2024-03-25T13:37:15;0.60;;;0.60;;
64688;SDS011;62504;46.070;14.492;2024-03-25T13:39:41;1.43;;;0.90;;
64688;SDS011;62504;46.070;14.492;2024-03-25T13:42:06;1.50;;;0.60;;
64688;SDS011;62504;46.070;14.492;2024-03-25T13:44:32;1.97;;;0.83;;
64688;SDS011;62504;46.070;14.492;2024-03-25T13:46:58;0.60;;;0.60;;
64688;SDS011;62504;46.070;14.492;2024-03-25T13:49:23;2.93;;;0.80;;
64688;SDS011;62504;46.070;14.492;2024-03-25T13:51:50;2.10;;;0.80;;
64688;SDS011;62504;46.070;14.492;2024-03-25T13:54:21;0.80;;;0.60;;
64688;SDS011;62504;46.070;14.492;2024-03-25T13:56:47;0.90;;;0.70;;
64688;SDS011;62504;46.070;14.492;2024-03-25T13:59:13;0.87;;;0.63;;
64688;SDS011;62504;46.070;14.492;2024-03-25T14:01:39;1.57;;;0.70;;
64688;SDS011;62504;46.070;14.492;2024-03-25T14:04:06;1.40;;;0.70;;
64688;SDS011;62504;46.070;14.492;2024-03-25T14:06:32;1.60;;;0.70;;
64688;SDS011;62504;46.070;14.492;2024-03-25T14:08:58;1.50;;;0.60;;
64688;SDS011;62504;46.070;14.492;2024-03-25T14:11:29;0.50;;;0.50;;
64688;SDS011;62504;46.070;14.492;2024-03-25T14:13:55;0.67;;;0.57;;
64688;SDS011;62504;46.070;14.492;2024-03-25T14:16:21;2.03;;;0.70;;
64688;SDS011;62504;46.070;14.492;2024-03-25T14:18:46;0.70;;;0.63;;
64688;SDS011;62504;46.070;14.492;2024-03-25T14:21:12;1.00;;;0.57;;
64688;SDS011;62504;46.070;14.492;2024-03-25T14:23:38;1.53;;;0.60;;
64688;SDS011;62504;46.070;14.492;2024-03-25T14:26:08;1.10;;;0.50;;
64688;SDS011;62504;46.070;14.492;2024-03-25T14:28:34;1.00;;;0.70;;
64688;SDS011;62504;46.070;14.492;2024-03-25T14:31:00;2.30;;;0.60;;